createdAt,value
2023-04-30T00:00:22.154Z,8.54
2023-04-30T00:03:25.150Z,8.40
2023-04-30T00:06:28.529Z,8.65
2023-04-30T00:09:31.120Z,8.37
2023-04-30T00:12:33.639Z,8.30
2023-04-30T00:15:36.625Z,8.61
2023-04-30T00:18:39.624Z,8.90
2023-04-30T00:21:42.438Z,8.83
2023-04-30T00:24:44.893Z,9.02
2023-04-30T00:27:47.489Z,8.87
2023-04-30T00:30:49.893Z,8.74
2023-04-30T00:33:52.319Z,8.83
2023-04-30T00:36:54.852Z,8.90
2023-04-30T00:39:57.386Z,8.85
2023-04-30T00:42:59.997Z,8.84
2023-04-30T00:46:03.932Z,8.72
2023-04-30T00:49:06.726Z,8.71
2023-04-30T00:52:09.220Z,8.57
2023-04-30T00:55:13.176Z,8.61
2023-04-30T00:58:16.011Z,8.58
2023-04-30T01:01:18.793Z,8.42
2023-04-30T01:04:21.959Z,8.40
2023-04-30T01:07:28.361Z,8.27
2023-04-30T01:10:42.253Z,8.03
2023-04-30T01:13:58.473Z,7.87
2023-04-30T01:17:17.674Z,7.78
2023-04-30T01:20:20.675Z,7.87
2023-04-30T01:24:00.635Z,7.76
2023-04-30T01:27:09.976Z,7.86
2023-04-30T01:30:13.937Z,7.71
2023-04-30T01:33:16.419Z,7.71
2023-04-30T01:36:57.524Z,7.93
2023-04-30T01:40:24.205Z,7.84
2023-04-30T01:43:38.721Z,8.09
2023-04-30T01:46:46.792Z,8.11
2023-04-30T01:50:08.757Z,8.11
2023-04-30T01:53:17.077Z,7.89
2023-04-30T01:56:34.065Z,8.03
2023-04-30T01:59:39.707Z,8.04
2023-04-30T02:02:42.664Z,8.32
2023-04-30T02:05:45.262Z,8.13
2023-04-30T02:08:48.371Z,8.10
2023-04-30T02:11:51.341Z,8.15
2023-04-30T02:14:53.805Z,8.40
2023-04-30T02:17:56.374Z,8.15
2023-04-30T02:20:58.878Z,8.11
2023-04-30T02:24:01.667Z,8.18
2023-04-30T02:27:04.073Z,8.03
2023-04-30T02:30:07.148Z,7.75
2023-04-30T02:33:12.392Z,7.96
2023-04-30T02:36:14.843Z,8.01
2023-04-30T02:39:17.530Z,8.00
2023-04-30T02:42:20.260Z,7.88
2023-04-30T02:45:22.704Z,7.50
2023-04-30T02:48:25.350Z,7.31
2023-04-30T02:51:28.339Z,7.43
2023-04-30T02:54:30.854Z,7.41
2023-04-30T02:57:33.274Z,7.52
2023-04-30T03:00:35.777Z,7.37
2023-04-30T03:03:38.312Z,7.07
2023-04-30T03:06:40.920Z,7.13
2023-04-30T03:09:44.006Z,7.13
2023-04-30T03:12:46.650Z,6.87
2023-04-30T03:15:49.057Z,6.74
2023-04-30T03:18:51.647Z,6.70
2023-04-30T03:21:54.891Z,6.61
2023-04-30T03:24:57.324Z,6.61
2023-04-30T03:27:59.862Z,6.63
2023-04-30T03:31:05.440Z,6.63
2023-04-30T03:34:08.181Z,6.52
2023-04-30T03:37:10.702Z,6.30
2023-04-30T03:40:13.268Z,6.63
2023-04-30T03:43:15.832Z,6.78
2023-04-30T03:46:18.864Z,6.50
2023-04-30T03:49:21.922Z,6.68
2023-04-30T03:52:24.449Z,6.81
2023-04-30T03:55:27.075Z,6.79
2023-04-30T03:58:30.115Z,6.87
2023-04-30T04:01:32.835Z,6.71
2023-04-30T04:04:35.686Z,6.94
2023-04-30T04:07:38.146Z,6.71
2023-04-30T04:10:41.103Z,6.60
2023-04-30T04:13:44.697Z,7.08
2023-04-30T04:16:48.628Z,7.14
2023-04-30T04:19:51.076Z,7.39
2023-04-30T04:22:54.054Z,7.56
2023-04-30T04:25:57.601Z,7.89
2023-04-30T04:29:00.552Z,8.06
2023-04-30T04:32:04.677Z,8.26
2023-04-30T04:35:08.450Z,8.52
2023-04-30T04:38:10.865Z,8.79
2023-04-30T04:41:13.258Z,8.97
2023-04-30T04:44:16.043Z,9.24
2023-04-30T04:47:21.911Z,9.21
2023-04-30T04:50:24.674Z,9.34
2023-04-30T04:53:27.170Z,9.69
2023-04-30T04:56:29.581Z,10.07
2023-04-30T04:59:32.191Z,10.24
2023-04-30T05:02:34.711Z,10.55
2023-04-30T05:05:37.090Z,10.70
2023-04-30T05:08:39.545Z,10.94
2023-04-30T05:11:43.844Z,10.76
2023-04-30T05:14:47.683Z,10.91
2023-04-30T05:17:50.094Z,10.89
2023-04-30T05:20:52.498Z,11.28
2023-04-30T05:23:55.431Z,11.12
2023-04-30T05:26:58.013Z,11.44
2023-04-30T05:30:00.886Z,11.38
2023-04-30T05:33:03.758Z,11.97
2023-04-30T05:36:06.410Z,12.27
2023-04-30T05:39:09.451Z,12.68
2023-04-30T05:42:11.864Z,12.76
2023-04-30T05:45:17.202Z,12.72
2023-04-30T05:48:19.987Z,13.22
2023-04-30T05:51:22.491Z,13.23
2023-04-30T05:54:25.172Z,13.70
2023-04-30T05:57:27.597Z,13.85
2023-04-30T06:00:31.242Z,13.86
2023-04-30T06:03:33.737Z,13.72
2023-04-30T06:06:36.338Z,13.89
2023-04-30T06:09:38.841Z,14.10
2023-04-30T06:12:41.325Z,14.25
2023-04-30T06:15:43.734Z,14.23
2023-04-30T06:18:46.115Z,14.22
2023-04-30T06:21:48.702Z,14.35
2023-04-30T06:24:51.092Z,14.03
2023-04-30T06:27:54.176Z,14.00
2023-04-30T06:30:56.896Z,14.09
2023-04-30T06:33:59.703Z,14.01
2023-04-30T06:37:02.053Z,13.87
2023-04-30T06:40:06.229Z,13.93
2023-04-30T06:43:08.639Z,13.82
2023-04-30T06:46:11.177Z,13.66
2023-04-30T06:49:13.813Z,13.42
2023-04-30T06:52:16.217Z,13.50
2023-04-30T06:55:19.050Z,13.58
2023-04-30T06:58:21.510Z,13.42
2023-04-30T07:01:23.928Z,14.10
2023-04-30T07:04:27.212Z,14.43
2023-04-30T07:07:29.698Z,14.59
2023-04-30T07:10:32.259Z,14.74
2023-04-30T07:13:34.717Z,14.75
2023-04-30T07:16:37.179Z,15.21
2023-04-30T07:19:39.777Z,15.34
2023-04-30T07:22:46.513Z,15.39
2023-04-30T07:25:49.366Z,15.95
2023-04-30T07:28:51.930Z,16.19
2023-04-30T07:31:54.403Z,16.79
2023-04-30T07:34:57.155Z,17.48
2023-04-30T07:37:59.527Z,18.32
2023-04-30T07:41:02.231Z,18.82
2023-04-30T07:44:04.954Z,19.00
2023-04-30T07:47:07.688Z,19.58
2023-04-30T07:50:10.505Z,20.27
2023-04-30T07:53:13.010Z,20.24
2023-04-30T07:56:15.983Z,20.10
2023-04-30T07:59:18.789Z,19.84
2023-04-30T08:02:21.822Z,19.93
2023-04-30T08:05:24.543Z,20.22
2023-04-30T08:08:26.989Z,20.13
2023-04-30T08:11:29.698Z,19.83
2023-04-30T08:14:33.123Z,19.37
2023-04-30T08:17:36.018Z,18.97
2023-04-30T08:20:38.800Z,18.86
2023-04-30T08:23:41.312Z,19.28
2023-04-30T08:26:43.723Z,19.52
2023-04-30T08:29:46.247Z,19.90
2023-04-30T08:32:49.428Z,19.99
2023-04-30T08:35:51.988Z,20.02
2023-04-30T08:38:54.635Z,20.08
2023-04-30T08:41:57.876Z,19.75
2023-04-30T08:45:01.628Z,19.38
2023-04-30T08:48:05.428Z,18.81
2023-04-30T08:51:08.019Z,18.91
2023-04-30T08:54:13.038Z,18.55
2023-04-30T08:57:15.610Z,18.49
2023-04-30T09:00:18.347Z,18.37
2023-04-30T09:03:23.809Z,18.02
2023-04-30T09:06:27.272Z,17.99
2023-04-30T09:09:31.763Z,18.23
2023-04-30T09:12:35.290Z,17.71
2023-04-30T09:15:41.685Z,17.93
2023-04-30T09:18:44.318Z,17.54
2023-04-30T09:21:47.058Z,17.40
2023-04-30T09:24:51.028Z,17.47
2023-04-30T09:28:12.796Z,17.44
2023-04-30T09:31:22.176Z,17.20
2023-04-30T09:34:35.732Z,17.58
2023-04-30T09:37:38.702Z,17.37
2023-04-30T09:40:42.688Z,17.13
2023-04-30T09:43:45.987Z,17.47
2023-04-30T09:46:50.918Z,17.21
2023-04-30T09:49:53.725Z,17.04
2023-04-30T09:53:06.577Z,17.15
2023-04-30T09:56:12.118Z,17.24
2023-04-30T09:59:16.228Z,17.38
2023-04-30T10:02:20.251Z,17.67
2023-04-30T10:05:23.079Z,18.17
2023-04-30T10:08:31.841Z,18.29
2023-04-30T10:11:37.659Z,18.53
2023-04-30T10:14:45.716Z,18.53
2023-04-30T10:18:02.343Z,18.54
2023-04-30T10:21:12.607Z,18.90
2023-04-30T10:24:20.673Z,18.69
2023-04-30T10:27:23.293Z,18.80
2023-04-30T10:30:26.254Z,18.73
2023-04-30T10:33:41.898Z,19.06
2023-04-30T10:36:44.848Z,19.40
2023-04-30T10:39:47.445Z,19.67
2023-04-30T10:42:54.632Z,19.90
2023-04-30T10:45:58.720Z,20.23
2023-04-30T10:49:01.432Z,20.48
2023-04-30T10:52:05.048Z,20.24
2023-04-30T10:55:09.092Z,20.32
2023-04-30T10:58:29.973Z,20.31
2023-04-30T11:01:57.249Z,20.38
2023-04-30T11:05:11.598Z,20.82
2023-04-30T11:08:14.338Z,20.98
2023-04-30T11:11:22.991Z,21.09
2023-04-30T11:14:25.496Z,21.25
2023-04-30T11:17:28.258Z,21.26
2023-04-30T11:20:30.784Z,21.09
2023-04-30T11:27:05.591Z,20.56
2023-04-30T11:30:18.669Z,20.31
2023-04-30T11:33:22.893Z,20.38
2023-04-30T11:36:26.795Z,22.03
2023-04-30T11:39:32.486Z,22.09
2023-04-30T11:42:35.597Z,22.94
2023-04-30T11:45:39.307Z,23.17
2023-04-30T11:48:44.158Z,22.66
2023-04-30T11:51:50.777Z,22.22
2023-04-30T11:54:55.592Z,24.57
2023-04-30T11:57:59.929Z,25.67
2023-04-30T12:01:02.816Z,24.05
2023-04-30T12:04:06.320Z,23.59
2023-04-30T12:07:09.754Z,22.48
2023-04-30T12:10:12.711Z,22.74
2023-04-30T12:13:16.680Z,23.38
2023-04-30T12:16:20.002Z,24.48
2023-04-30T12:19:25.365Z,25.42
2023-04-30T12:22:28.738Z,25.39
2023-04-30T12:25:31.140Z,25.27
2023-04-30T12:28:34.954Z,25.69
2023-04-30T12:31:38.631Z,25.63
2023-04-30T12:34:42.008Z,25.72
2023-04-30T12:37:45.844Z,25.39
2023-04-30T12:40:51.354Z,24.66
2023-04-30T12:44:14.191Z,25.17
2023-04-30T12:47:16.910Z,24.63
2023-04-30T12:50:22.639Z,25.43
2023-04-30T12:53:25.339Z,24.44
2023-04-30T12:56:27.775Z,25.06
2023-04-30T12:59:31.652Z,25.05
2023-04-30T13:02:34.497Z,24.87
2023-04-30T13:05:37.070Z,25.20
2023-04-30T13:08:54.081Z,24.48
2023-04-30T13:12:01.220Z,24.68
2023-04-30T13:15:03.996Z,22.90
2023-04-30T13:18:09.369Z,21.35
2023-04-30T13:21:12.748Z,20.94
2023-04-30T13:24:16.077Z,20.64
2023-04-30T13:27:18.545Z,20.03
2023-04-30T13:30:21.037Z,21.20
2023-04-30T13:33:23.529Z,22.04
2023-04-30T13:36:25.867Z,22.08
2023-04-30T13:39:28.541Z,22.51
2023-04-30T13:42:31.929Z,22.94
2023-04-30T13:45:34.433Z,23.13
2023-04-30T13:48:36.848Z,22.93
2023-04-30T13:51:39.372Z,22.35
2023-04-30T13:54:42.086Z,22.16
2023-04-30T13:57:44.505Z,21.75
2023-04-30T14:00:47.092Z,21.98
2023-04-30T14:03:49.636Z,21.38
2023-04-30T14:06:52.875Z,20.76
2023-04-30T14:09:55.446Z,21.43
2023-04-30T14:12:58.196Z,21.42
2023-04-30T14:16:00.690Z,21.37
2023-04-30T14:19:03.239Z,21.04
2023-04-30T14:22:05.832Z,20.52
2023-04-30T14:25:09.554Z,20.15
2023-04-30T14:28:12.062Z,20.26
2023-04-30T14:31:14.771Z,19.86
2023-04-30T14:34:17.608Z,19.77
2023-04-30T14:37:20.447Z,19.89
2023-04-30T14:40:23.445Z,19.41
2023-04-30T14:43:25.951Z,19.08
2023-04-30T14:46:28.612Z,18.78
2023-04-30T14:49:31.396Z,18.88
2023-04-30T14:52:33.761Z,18.64
2023-04-30T14:55:36.231Z,18.50
2023-04-30T14:58:38.701Z,18.33
2023-04-30T15:01:42.279Z,18.35
2023-04-30T15:04:46.353Z,18.38
2023-04-30T15:07:48.755Z,18.51
2023-04-30T15:10:51.182Z,18.30
2023-04-30T15:13:55.159Z,18.08
2023-04-30T15:16:57.665Z,17.94
2023-04-30T15:20:02.303Z,17.78
2023-04-30T15:23:05.525Z,17.53
2023-04-30T15:26:08.367Z,17.49
2023-04-30T15:29:11.229Z,17.28
2023-04-30T15:32:14.002Z,16.92
2023-04-30T15:35:16.513Z,17.20
2023-04-30T15:38:19.185Z,17.14
2023-04-30T15:41:22.211Z,17.04
2023-04-30T15:44:24.633Z,17.08
2023-04-30T15:47:27.145Z,16.75
2023-04-30T15:50:31.008Z,16.88
2023-04-30T15:53:33.850Z,16.85
2023-04-30T15:56:36.614Z,16.63
2023-04-30T15:59:39.046Z,16.77
2023-04-30T16:02:41.615Z,16.52
2023-04-30T16:05:44.125Z,16.63
2023-04-30T16:08:47.001Z,16.62
2023-04-30T16:11:50.844Z,16.55
2023-04-30T16:14:53.696Z,16.63
2023-04-30T16:17:58.861Z,16.32
2023-04-30T16:21:01.648Z,16.37
2023-04-30T16:24:07.793Z,16.29
2023-04-30T16:27:10.394Z,16.25
2023-04-30T16:30:13.154Z,16.19
2023-04-30T16:33:16.354Z,15.97
2023-04-30T16:36:18.967Z,15.86
2023-04-30T16:39:21.347Z,15.77
2023-04-30T16:42:34.896Z,15.66
2023-04-30T16:45:37.556Z,15.63
2023-04-30T16:48:40.281Z,15.41
2023-04-30T16:51:42.657Z,15.57
2023-04-30T16:54:45.474Z,15.33
2023-04-30T16:57:47.986Z,15.37
2023-04-30T17:00:55.944Z,15.19
2023-04-30T17:03:58.572Z,15.23
2023-04-30T17:07:01.081Z,15.05
2023-04-30T17:10:04.710Z,14.90
2023-04-30T17:13:07.170Z,15.01
2023-04-30T17:16:09.753Z,14.88
2023-04-30T17:19:12.236Z,14.82
2023-04-30T17:22:19.425Z,14.85
2023-04-30T17:25:22.446Z,14.82
2023-04-30T17:28:26.082Z,14.57
2023-04-30T17:31:30.646Z,14.59
2023-04-30T17:34:33.458Z,14.35
2023-04-30T17:37:36.621Z,14.28
2023-04-30T17:40:39.187Z,14.20
2023-04-30T17:43:41.769Z,14.35
2023-04-30T17:46:45.557Z,14.20
2023-04-30T17:49:48.317Z,14.14
2023-04-30T17:52:51.384Z,14.10
2023-04-30T17:55:53.889Z,13.64
2023-04-30T17:58:56.601Z,13.80
2023-04-30T18:01:59.713Z,13.89
2023-04-30T18:05:02.593Z,13.99
2023-04-30T18:08:06.399Z,13.79
2023-04-30T18:11:09.517Z,13.73
2023-04-30T18:14:12.664Z,13.65
2023-04-30T18:17:15.348Z,13.60
2023-04-30T18:20:18.257Z,13.41
2023-04-30T18:23:22.152Z,13.60
2023-04-30T18:26:25.048Z,13.49
2023-04-30T18:29:27.750Z,13.40
2023-04-30T18:32:30.449Z,13.38
2023-04-30T18:35:34.208Z,13.31
2023-04-30T18:38:38.772Z,13.07
2023-04-30T18:41:41.280Z,12.98
2023-04-30T18:44:43.845Z,13.13
2023-04-30T18:47:46.436Z,13.15
2023-04-30T18:50:49.947Z,12.94
2023-04-30T18:53:53.046Z,13.11
2023-04-30T18:56:55.418Z,13.01
2023-04-30T18:59:58.215Z,12.91
2023-04-30T19:03:01.202Z,12.90
2023-04-30T19:06:04.773Z,12.92
2023-04-30T19:09:07.314Z,12.79
2023-04-30T19:12:10.308Z,12.80
2023-04-30T19:15:15.048Z,12.98
2023-04-30T19:18:18.847Z,12.64
2023-04-30T19:21:21.466Z,12.70
2023-04-30T19:24:25.249Z,12.64
2023-04-30T19:27:28.096Z,12.58
2023-04-30T19:30:32.387Z,12.29
2023-04-30T19:33:39.208Z,12.21
2023-04-30T19:36:43.864Z,12.16
2023-04-30T19:39:46.546Z,11.89
2023-04-30T19:42:49.074Z,11.85
2023-04-30T19:45:53.807Z,11.61
2023-04-30T19:48:56.487Z,11.41
2023-04-30T19:51:59.341Z,11.55
2023-04-30T19:55:02.332Z,11.73
2023-04-30T19:58:05.262Z,11.67
2023-04-30T20:01:08.880Z,11.57
2023-04-30T20:04:11.845Z,11.42
2023-04-30T20:07:14.619Z,11.39
2023-04-30T20:10:17.399Z,11.42
2023-04-30T20:13:21.064Z,11.50
2023-04-30T20:16:23.920Z,11.52
2023-04-30T20:19:26.672Z,11.66
2023-04-30T20:22:29.393Z,11.42
2023-04-30T20:25:31.849Z,11.30
2023-04-30T20:28:34.800Z,11.36
2023-04-30T20:31:37.825Z,11.47
2023-04-30T20:34:41.725Z,11.62
2023-04-30T20:37:44.292Z,11.61
2023-04-30T20:40:47.192Z,11.56
2023-04-30T20:43:52.091Z,11.53
2023-04-30T20:46:54.890Z,11.76
2023-04-30T20:49:57.787Z,11.70
2023-04-30T20:53:00.823Z,11.71
2023-04-30T20:56:03.714Z,11.54
2023-04-30T20:59:06.162Z,11.43
2023-04-30T21:02:10.328Z,11.33
2023-04-30T21:05:13.206Z,10.73
2023-04-30T21:08:15.577Z,10.54
2023-04-30T21:11:19.386Z,10.20
2023-04-30T21:14:21.999Z,10.12
2023-04-30T21:17:24.422Z,10.09
2023-04-30T21:20:27.202Z,10.24
2023-04-30T21:23:30.056Z,10.21
2023-04-30T21:26:32.767Z,9.98
2023-04-30T21:29:35.483Z,9.97
2023-04-30T21:32:38.298Z,9.95
2023-04-30T21:35:40.866Z,10.05
2023-04-30T21:38:43.281Z,10.27
2023-04-30T21:41:45.882Z,10.37
2023-04-30T21:44:48.580Z,10.28
2023-04-30T21:47:51.130Z,10.28
2023-04-30T21:50:53.532Z,10.51
2023-04-30T21:53:57.396Z,10.52
2023-04-30T21:57:01.148Z,10.68
2023-04-30T22:00:07.281Z,10.63
2023-04-30T22:03:11.706Z,10.59
2023-04-30T22:06:14.247Z,10.71
2023-04-30T22:09:16.923Z,10.60
2023-04-30T22:12:21.313Z,10.52
2023-04-30T22:15:26.025Z,10.47
2023-04-30T22:18:31.758Z,10.61
2023-04-30T22:21:34.402Z,10.59
2023-04-30T22:24:37.196Z,10.40
2023-04-30T22:27:39.550Z,10.51
2023-04-30T22:30:42.036Z,10.33
2023-04-30T22:33:44.838Z,10.45
2023-04-30T22:36:47.361Z,10.37
2023-04-30T22:39:49.749Z,10.21
2023-04-30T22:42:52.355Z,10.26
2023-04-30T22:45:55.215Z,10.19
2023-04-30T22:48:57.704Z,10.04
2023-04-30T22:52:00.795Z,9.79
2023-04-30T22:55:05.544Z,9.73
2023-04-30T22:58:07.957Z,9.90
2023-04-30T23:01:10.436Z,9.73
2023-04-30T23:04:13.747Z,9.57
2023-04-30T23:07:16.659Z,9.54
2023-04-30T23:10:19.178Z,9.64
2023-04-30T23:13:21.701Z,9.42
2023-04-30T23:16:24.167Z,9.60
2023-04-30T23:19:26.851Z,9.58
2023-04-30T23:22:29.321Z,9.53
2023-04-30T23:25:32.805Z,9.42
2023-04-30T23:28:36.928Z,9.41
2023-04-30T23:31:40.155Z,9.21
2023-04-30T23:34:42.600Z,9.39
2023-04-30T23:37:45.364Z,9.35
2023-04-30T23:40:48.138Z,9.28
2023-04-30T23:43:51.064Z,9.35
2023-04-30T23:46:55.680Z,9.36
2023-04-30T23:49:58.327Z,9.15
2023-04-30T23:53:00.812Z,9.17
2023-04-30T23:56:03.592Z,9.11
2023-04-30T23:59:06.020Z,9.28
